Redmond, Washington
Current Conditions -  °F | °C
As of 10:53 AM on Monday 22 Dec 2014 (Local Time) from KBFI Reporting Station
Broken Clouds Broken Clouds  
Wind Chill: 50°   Ceiling: 15000
Heat Index: 50°   Visibility: 10mi
Dew Point: 39°   Wind: 0mph
Humidity: 66%   Direction: NA
Pressure: 30.37"   Gusts: NA
Location:  47.68°N, 122.13°W
Report Text: KBFI 221853Z 00000KT 10SM FEW031 BKN150 10/04 A3037 RMK AO2 SLP284 T01000039
Loading
Personal Weather Stations






























Interactive Weather Map New forecast layout! Learn more

10-Day Weather Forecast

Advertisements
Track Severe Weather on mobile